createdAt,value
2024-03-16T00:00:28.867Z,4.94
2024-03-16T00:03:16.920Z,4.92
2024-03-16T00:05:45.197Z,4.92
2024-03-16T00:08:13.173Z,4.91
2024-03-16T00:10:41.046Z,4.92
2024-03-16T00:13:09.070Z,4.92
2024-03-16T00:15:37.064Z,4.91
2024-03-16T00:18:05.365Z,4.90
2024-03-16T00:20:33.422Z,4.90
2024-03-16T00:23:02.321Z,4.90
2024-03-16T00:25:30.277Z,4.90
2024-03-16T00:27:58.518Z,4.89
2024-03-16T00:30:26.993Z,4.88
2024-03-16T00:32:55.829Z,4.88
2024-03-16T00:35:24.092Z,4.88
2024-03-16T00:37:52.201Z,4.88
2024-03-16T00:40:21.129Z,4.89
2024-03-16T00:42:49.371Z,4.89
2024-03-16T00:45:17.403Z,4.90
2024-03-16T00:47:45.561Z,4.90
2024-03-16T00:50:15.833Z,4.93
2024-03-16T00:52:43.966Z,4.94
2024-03-16T00:55:12.291Z,4.95
2024-03-16T00:57:40.709Z,4.95
2024-03-16T01:00:10.806Z,4.96
2024-03-16T01:02:40.555Z,4.96
2024-03-16T01:05:08.958Z,4.97
2024-03-16T01:07:37.573Z,4.98
2024-03-16T01:10:06.650Z,4.98
2024-03-16T01:12:34.977Z,4.99
2024-03-16T01:15:03.128Z,4.98
2024-03-16T01:17:31.075Z,4.98
2024-03-16T01:19:59.407Z,4.99
2024-03-16T01:22:27.484Z,5.00
2024-03-16T01:24:55.513Z,4.98
2024-03-16T01:27:23.435Z,4.94
2024-03-16T01:29:51.328Z,4.94
2024-03-16T01:32:19.459Z,4.92
2024-03-16T01:34:47.598Z,4.91
2024-03-16T01:37:15.690Z,4.90
2024-03-16T01:39:45.566Z,4.88
2024-03-16T01:42:14.412Z,4.87
2024-03-16T01:45:11.883Z,4.85
2024-03-16T01:47:40.035Z,4.84
2024-03-16T01:50:10.329Z,4.84
2024-03-16T01:52:38.472Z,4.84
2024-03-16T01:55:06.904Z,4.86
2024-03-16T01:57:35.453Z,4.87
2024-03-16T02:00:04.668Z,4.87
2024-03-16T02:02:38.214Z,4.87
2024-03-16T02:05:07.405Z,4.87
2024-03-16T02:07:40.094Z,4.88
2024-03-16T02:10:11.484Z,4.92
2024-03-16T02:12:39.975Z,4.94
2024-03-16T02:15:08.690Z,4.96
2024-03-16T02:17:37.886Z,4.99
2024-03-16T02:20:10.725Z,5.00
2024-03-16T02:22:38.733Z,5.01
2024-03-16T02:25:08.244Z,5.04
2024-03-16T02:27:36.754Z,5.05
2024-03-16T02:30:06.874Z,5.07
2024-03-16T02:32:35.154Z,5.08
2024-03-16T02:35:03.599Z,5.06
2024-03-16T02:37:31.577Z,5.08
2024-03-16T02:39:59.800Z,5.09
2024-03-16T02:42:28.691Z,5.09
2024-03-16T02:44:56.712Z,5.11
2024-03-16T02:47:25.618Z,5.12
2024-03-16T02:49:53.823Z,5.13
2024-03-16T02:52:21.737Z,5.14
2024-03-16T02:54:49.992Z,5.15
2024-03-16T02:57:18.021Z,5.16
2024-03-16T02:59:46.444Z,5.18
2024-03-16T03:02:15.558Z,5.19
2024-03-16T03:04:43.633Z,5.20
2024-03-16T03:07:11.822Z,5.21
2024-03-16T03:09:39.859Z,5.22
2024-03-16T03:12:08.561Z,5.24
2024-03-16T03:14:36.675Z,5.22
2024-03-16T03:17:04.718Z,5.20
2024-03-16T03:19:32.618Z,5.21
2024-03-16T03:22:00.711Z,5.21
2024-03-16T03:24:28.788Z,5.22
2024-03-16T03:26:57.096Z,5.21
2024-03-16T03:29:25.077Z,5.21
2024-03-16T03:31:53.259Z,5.19
2024-03-16T03:34:21.702Z,5.17
2024-03-16T03:36:50.447Z,5.13
2024-03-16T03:39:19.119Z,5.11
2024-03-16T03:41:47.579Z,5.08
2024-03-16T03:44:37.681Z,5.04
2024-03-16T03:47:05.815Z,5.00
2024-03-16T03:49:36.647Z,5.00
2024-03-16T03:52:06.105Z,5.02
2024-03-16T03:54:36.021Z,5.03
2024-03-16T03:57:05.428Z,4.94
2024-03-16T03:59:33.992Z,4.89
2024-03-16T04:02:02.189Z,4.85
2024-03-16T04:04:30.329Z,4.82
2024-03-16T04:06:58.386Z,4.79
2024-03-16T04:09:26.456Z,4.76
2024-03-16T04:11:54.539Z,4.72
2024-03-16T04:14:22.812Z,4.70
2024-03-16T04:16:50.902Z,4.66
2024-03-16T04:19:18.804Z,4.63
2024-03-16T04:21:51.394Z,4.58
2024-03-16T04:24:19.974Z,4.55
2024-03-16T04:26:47.877Z,4.56
2024-03-16T04:29:16.473Z,4.57
2024-03-16T04:31:44.409Z,4.57
2024-03-16T04:34:13.126Z,4.58
2024-03-16T04:36:42.032Z,4.60
2024-03-16T04:39:10.387Z,4.61
2024-03-16T04:41:38.457Z,4.61
2024-03-16T04:44:06.330Z,4.62
2024-03-16T04:46:34.811Z,4.63
2024-03-16T04:49:03.298Z,4.63
2024-03-16T04:51:31.835Z,4.63
2024-03-16T04:54:02.373Z,4.63
2024-03-16T04:56:30.465Z,4.65
2024-03-16T04:58:58.321Z,4.66
2024-03-16T05:01:27.309Z,4.69
2024-03-16T05:03:55.218Z,4.70
2024-03-16T05:06:23.371Z,4.72
2024-03-16T05:08:52.463Z,4.71
2024-03-16T05:11:20.604Z,4.73
2024-03-16T05:13:48.903Z,4.74
2024-03-16T05:16:17.132Z,4.73
2024-03-16T05:18:45.292Z,4.70
2024-03-16T05:21:13.715Z,4.66
2024-03-16T05:23:42.207Z,4.64
2024-03-16T05:26:10.097Z,4.62
2024-03-16T05:28:38.074Z,4.60
2024-03-16T05:31:06.760Z,4.60
2024-03-16T05:33:35.438Z,4.61
2024-03-16T05:36:06.498Z,4.67
2024-03-16T05:38:34.354Z,4.69
2024-03-16T05:41:02.315Z,4.77
2024-03-16T05:43:30.361Z,4.87
2024-03-16T05:45:58.443Z,4.97
2024-03-16T05:48:26.650Z,5.09
2024-03-16T05:50:54.912Z,5.20
2024-03-16T05:53:25.061Z,5.29
2024-03-16T05:55:53.076Z,5.41
2024-03-16T05:58:24.011Z,5.51
2024-03-16T06:00:52.084Z,5.62
2024-03-16T06:03:20.164Z,5.70
2024-03-16T06:05:48.333Z,5.79
2024-03-16T06:08:16.411Z,6.00
2024-03-16T06:10:45.310Z,6.16
2024-03-16T06:13:14.451Z,6.24
2024-03-16T06:15:42.475Z,6.36
2024-03-16T06:18:10.946Z,6.50
2024-03-16T06:20:39.241Z,6.63
2024-03-16T06:23:07.811Z,6.77
2024-03-16T06:25:48.450Z,6.82
2024-03-16T06:28:23.149Z,6.95
2024-03-16T06:30:56.947Z,7.19
2024-03-16T06:33:34.323Z,7.23
2024-03-16T06:36:02.526Z,7.38
2024-03-16T06:38:30.895Z,7.52
2024-03-16T06:40:59.047Z,7.59
2024-03-16T06:43:27.311Z,7.67
2024-03-16T06:45:55.179Z,7.83
2024-03-16T06:48:23.850Z,8.05
2024-03-16T06:50:53.062Z,8.15
2024-03-16T06:53:21.211Z,8.22
2024-03-16T06:55:52.624Z,8.34
2024-03-16T06:58:20.526Z,8.40
2024-03-16T07:00:51.982Z,8.36
2024-03-16T07:03:20.489Z,8.49
2024-03-16T07:05:48.737Z,8.68
2024-03-16T07:08:18.650Z,8.80
2024-03-16T07:10:47.049Z,8.94
2024-03-16T07:13:15.245Z,9.01
2024-03-16T07:15:45.375Z,9.05
2024-03-16T07:18:13.549Z,9.12
2024-03-16T07:20:42.662Z,9.16
2024-03-16T07:23:10.760Z,9.31
2024-03-16T07:25:38.820Z,9.50
2024-03-16T07:28:09.208Z,9.59
2024-03-16T07:30:37.823Z,9.72
2024-03-16T07:33:06.037Z,9.79
2024-03-16T07:35:36.229Z,9.86
2024-03-16T07:38:05.939Z,10.00
2024-03-16T07:40:34.053Z,10.15
2024-03-16T07:43:03.078Z,10.28
2024-03-16T07:45:31.663Z,10.39
2024-03-16T07:47:59.879Z,10.35
2024-03-16T07:50:27.835Z,10.32
2024-03-16T07:52:55.805Z,10.29
2024-03-16T07:55:23.795Z,10.21
2024-03-16T07:57:52.171Z,10.16
2024-03-16T08:00:20.441Z,10.28
2024-03-16T08:02:48.473Z,10.38
2024-03-16T08:05:16.411Z,10.57
2024-03-16T08:07:45.609Z,10.47
2024-03-16T08:10:13.965Z,10.37
2024-03-16T08:12:42.878Z,10.26
2024-03-16T08:15:11.938Z,10.29
2024-03-16T08:17:39.946Z,10.39
2024-03-16T08:20:09.639Z,10.49
2024-03-16T08:22:37.660Z,10.40
2024-03-16T08:25:07.413Z,10.60
2024-03-16T08:27:37.836Z,10.85
2024-03-16T08:30:06.628Z,10.90
2024-03-16T08:32:34.818Z,10.88
2024-03-16T08:35:04.886Z,10.86
2024-03-16T08:37:33.321Z,10.95
2024-03-16T08:40:01.685Z,11.07
2024-03-16T08:42:30.544Z,11.09
2024-03-16T08:44:58.554Z,11.19
2024-03-16T08:47:26.899Z,11.36
2024-03-16T08:49:55.092Z,11.55
2024-03-16T08:52:25.504Z,11.57
2024-03-16T08:54:57.094Z,11.53
2024-03-16T08:57:25.937Z,11.67
2024-03-16T08:59:54.435Z,11.79
2024-03-16T09:02:25.439Z,11.82
2024-03-16T09:04:53.736Z,11.80
2024-03-16T09:07:21.727Z,11.69
2024-03-16T09:09:50.241Z,11.53
2024-03-16T09:12:18.437Z,11.41
2024-03-16T09:14:46.439Z,11.38
2024-03-16T09:17:14.336Z,11.38
2024-03-16T09:19:42.289Z,11.49
2024-03-16T09:22:10.557Z,11.46
2024-03-16T09:24:38.732Z,11.52
2024-03-16T09:27:06.736Z,11.68
2024-03-16T09:29:34.756Z,11.77
2024-03-16T09:32:02.800Z,11.89
2024-03-16T09:34:30.991Z,12.01
2024-03-16T09:36:58.994Z,12.10
2024-03-16T09:39:28.408Z,12.07
2024-03-16T09:41:58.531Z,12.09
2024-03-16T09:44:27.213Z,12.12
2024-03-16T09:46:56.364Z,12.13
2024-03-16T09:49:25.363Z,12.23
2024-03-16T09:51:55.005Z,12.47
2024-03-16T09:54:23.466Z,12.72
2024-03-16T09:56:51.622Z,12.93
2024-03-16T09:59:29.772Z,12.93
2024-03-16T10:02:01.376Z,12.86
2024-03-16T10:04:29.362Z,12.81
2024-03-16T10:06:57.611Z,12.81
2024-03-16T10:09:26.746Z,12.85
2024-03-16T10:11:56.121Z,12.85
2024-03-16T10:14:24.365Z,12.99
2024-03-16T10:16:52.280Z,13.04
2024-03-16T10:19:25.081Z,12.97
2024-03-16T10:21:54.839Z,12.96
2024-03-16T10:24:24.056Z,12.98
2024-03-16T10:26:52.126Z,12.94
2024-03-16T10:29:22.363Z,13.06
2024-03-16T10:31:55.001Z,13.21
2024-03-16T10:34:24.224Z,13.16
2024-03-16T10:36:53.182Z,13.22
2024-03-16T10:39:23.730Z,13.14
2024-03-16T10:41:53.981Z,13.08
2024-03-16T10:44:23.065Z,13.16
2024-03-16T10:46:51.337Z,13.28
2024-03-16T10:49:19.410Z,13.45
2024-03-16T10:51:47.481Z,13.61
2024-03-16T10:54:16.005Z,13.85
2024-03-16T10:56:46.140Z,13.93
2024-03-16T10:59:32.593Z,13.92
2024-03-16T11:02:02.157Z,13.85
2024-03-16T11:04:31.801Z,13.65
2024-03-16T11:06:59.865Z,13.52
2024-03-16T11:09:34.112Z,13.52
2024-03-16T11:12:03.207Z,13.59
2024-03-16T11:14:32.689Z,13.79
2024-03-16T11:17:01.157Z,14.00
2024-03-16T11:19:29.117Z,14.13
2024-03-16T11:22:01.385Z,14.29
2024-03-16T11:24:29.887Z,14.36
2024-03-16T11:26:57.857Z,14.51
2024-03-16T11:29:28.873Z,14.72
2024-03-16T11:31:58.090Z,15.01
2024-03-16T11:34:27.046Z,15.16
2024-03-16T11:36:56.318Z,15.36
2024-03-16T11:39:25.830Z,15.42
2024-03-16T11:42:04.880Z,15.68
2024-03-16T11:44:37.202Z,15.90
2024-03-16T11:47:06.386Z,15.82
2024-03-16T11:49:35.953Z,15.76
2024-03-16T11:52:05.915Z,15.74
2024-03-16T11:54:34.317Z,15.88
2024-03-16T11:57:02.365Z,15.80
2024-03-16T11:59:30.444Z,15.78
2024-03-16T12:01:59.325Z,15.65
2024-03-16T12:04:29.650Z,15.69
2024-03-16T12:07:00.586Z,15.96
2024-03-16T12:09:36.937Z,16.17
2024-03-16T12:12:09.025Z,16.25
2024-03-16T12:14:43.128Z,16.18
2024-03-16T12:17:12.633Z,16.20
2024-03-16T12:19:40.912Z,16.30
2024-03-16T12:22:16.198Z,16.56
2024-03-16T12:24:44.729Z,16.66
2024-03-16T12:27:13.631Z,16.72
2024-03-16T12:29:44.764Z,16.61
2024-03-16T12:32:13.040Z,16.37
2024-03-16T12:34:41.214Z,16.73
2024-03-16T12:37:09.316Z,17.12
2024-03-16T12:39:38.101Z,17.45
2024-03-16T12:42:07.431Z,17.61
2024-03-16T12:44:35.545Z,17.75
2024-03-16T12:47:03.786Z,17.74
2024-03-16T12:49:31.671Z,17.31
2024-03-16T12:51:59.759Z,17.29
2024-03-16T12:54:28.248Z,17.23
2024-03-16T12:56:56.534Z,17.09
2024-03-16T12:59:25.634Z,17.12
2024-03-16T13:01:53.584Z,17.17
2024-03-16T13:04:21.447Z,17.27
2024-03-16T13:06:49.422Z,17.47
2024-03-16T13:09:17.413Z,17.61
2024-03-16T13:11:45.564Z,17.58
2024-03-16T13:14:14.151Z,17.58
2024-03-16T13:16:42.136Z,17.87
2024-03-16T13:19:13.251Z,18.22
2024-03-16T13:21:41.985Z,17.98
2024-03-16T13:24:10.056Z,18.06
2024-03-16T13:26:38.246Z,18.06
2024-03-16T13:29:07.316Z,18.31
2024-03-16T13:31:35.560Z,18.49
2024-03-16T13:34:04.573Z,18.58
2024-03-16T13:36:32.621Z,18.62
2024-03-16T13:39:00.886Z,18.65
2024-03-16T13:41:28.778Z,18.61
2024-03-16T13:43:56.868Z,18.53
2024-03-16T13:46:25.519Z,18.54
2024-03-16T13:49:01.627Z,18.28
2024-03-16T13:51:33.776Z,18.01
2024-03-16T13:54:02.273Z,18.00
2024-03-16T13:56:33.878Z,18.05
2024-03-16T13:59:03.097Z,18.16
2024-03-16T14:01:31.241Z,17.87
2024-03-16T14:04:00.254Z,17.36
2024-03-16T14:06:29.244Z,16.98
2024-03-16T14:08:57.439Z,17.06
2024-03-16T14:11:26.069Z,17.19
2024-03-16T14:13:57.087Z,17.41
2024-03-16T14:16:25.409Z,17.21
2024-03-16T14:18:53.315Z,16.89
2024-03-16T14:21:21.305Z,16.84
2024-03-16T14:23:49.413Z,17.11
2024-03-16T14:26:17.904Z,17.26
2024-03-16T14:28:46.655Z,17.44
2024-03-16T14:31:15.573Z,17.56
2024-03-16T14:33:43.798Z,17.62
2024-03-16T14:36:14.736Z,17.52
2024-03-16T14:38:43.372Z,17.72
2024-03-16T14:41:11.667Z,17.87
2024-03-16T14:43:39.723Z,17.99
2024-03-16T14:46:07.752Z,18.13
2024-03-16T14:48:36.440Z,18.45
2024-03-16T14:51:04.988Z,18.23
2024-03-16T14:53:33.346Z,18.32
2024-03-16T14:56:01.728Z,18.22
2024-03-16T14:58:29.609Z,18.10
2024-03-16T15:00:58.071Z,18.23
2024-03-16T15:03:26.244Z,18.17
2024-03-16T15:05:54.556Z,17.84
2024-03-16T15:08:23.241Z,18.07
2024-03-16T15:10:51.144Z,17.99
2024-03-16T15:13:19.748Z,18.24
2024-03-16T15:15:47.692Z,18.62
2024-03-16T15:18:15.887Z,18.25
2024-03-16T15:20:43.767Z,18.25
2024-03-16T15:23:12.272Z,18.35
2024-03-16T15:26:00.216Z,18.21
2024-03-16T15:28:34.715Z,17.75
2024-03-16T15:31:02.769Z,17.50
2024-03-16T15:33:32.338Z,17.19
2024-03-16T15:36:00.650Z,16.99
2024-03-16T15:38:28.733Z,16.90
2024-03-16T15:40:56.969Z,17.02
2024-03-16T15:43:25.467Z,17.24
2024-03-16T15:45:53.468Z,17.13
2024-03-16T15:48:22.272Z,16.88
2024-03-16T15:50:50.444Z,16.27
2024-03-16T15:53:18.487Z,15.62
2024-03-16T15:55:48.533Z,15.01
2024-03-16T15:58:18.431Z,14.43
2024-03-16T16:00:47.067Z,14.09
2024-03-16T16:03:15.173Z,13.89
2024-03-16T16:05:43.219Z,13.67
2024-03-16T16:08:11.655Z,13.45
2024-03-16T16:10:41.682Z,13.30
2024-03-16T16:13:13.152Z,13.13
2024-03-16T16:15:41.374Z,12.96
2024-03-16T16:18:09.331Z,12.85
2024-03-16T16:20:37.304Z,12.75
2024-03-16T16:23:08.145Z,12.63
2024-03-16T16:25:36.401Z,12.47
2024-03-16T16:28:09.681Z,12.37
2024-03-16T16:30:37.947Z,12.27
2024-03-16T16:33:09.062Z,12.16
2024-03-16T16:35:40.218Z,12.07
2024-03-16T16:38:08.248Z,11.95
2024-03-16T16:40:36.995Z,11.87
2024-03-16T16:43:05.932Z,11.75
2024-03-16T16:45:33.980Z,11.67
2024-03-16T16:48:02.158Z,11.58
2024-03-16T16:50:30.406Z,11.49
2024-03-16T16:52:58.289Z,11.41
2024-03-16T16:55:26.255Z,11.33
2024-03-16T16:57:54.341Z,11.26
2024-03-16T17:00:24.544Z,11.18
2024-03-16T17:02:52.870Z,11.10
2024-03-16T17:05:20.703Z,11.02
2024-03-16T17:07:48.683Z,10.94
